createdAt,value
2023-05-14T00:00:12.881Z,12.64
2023-05-14T00:01:17.379Z,12.69
2023-05-14T00:02:18.985Z,12.60
2023-05-14T00:03:20.664Z,12.64
2023-05-14T00:04:22.502Z,12.64
2023-05-14T00:05:24.117Z,12.67
2023-05-14T00:06:25.789Z,12.72
2023-05-14T00:07:27.351Z,12.72
2023-05-14T00:08:28.871Z,12.74
2023-05-14T00:09:30.405Z,12.74
2023-05-14T00:10:32.322Z,12.72
2023-05-14T00:11:33.870Z,12.72
2023-05-14T00:12:35.553Z,12.68
2023-05-14T00:13:37.160Z,12.67
2023-05-14T00:14:38.684Z,12.67
2023-05-14T00:15:40.230Z,12.67
2023-05-14T00:16:41.750Z,12.66
2023-05-14T00:17:43.354Z,12.61
2023-05-14T00:18:44.943Z,12.59
2023-05-14T00:19:46.484Z,12.63
2023-05-14T00:20:48.013Z,12.56
2023-05-14T00:21:49.616Z,12.33
2023-05-14T00:22:51.129Z,12.24
2023-05-14T00:23:52.719Z,12.22
2023-05-14T00:24:54.249Z,12.21
2023-05-14T00:25:55.817Z,12.26
2023-05-14T00:26:57.340Z,12.28
2023-05-14T00:27:58.909Z,12.32
2023-05-14T00:29:00.450Z,12.42
2023-05-14T00:30:04.631Z,12.46
2023-05-14T00:31:06.316Z,12.46
2023-05-14T00:32:08.218Z,12.56
2023-05-14T00:33:09.799Z,12.40
2023-05-14T00:34:11.512Z,12.23
2023-05-14T00:35:13.228Z,12.16
2023-05-14T00:36:14.731Z,12.26
2023-05-14T00:37:16.347Z,12.30
2023-05-14T00:38:17.933Z,12.31
2023-05-14T00:39:19.543Z,12.33
2023-05-14T00:40:25.669Z,12.34
2023-05-14T00:41:27.792Z,12.35
2023-05-14T00:42:29.337Z,12.35
2023-05-14T00:43:30.873Z,12.40
2023-05-14T00:44:32.685Z,12.29
2023-05-14T00:45:34.305Z,12.06
2023-05-14T00:46:35.918Z,11.95
2023-05-14T00:47:37.810Z,11.85
2023-05-14T00:48:39.567Z,11.78
2023-05-14T00:49:41.591Z,11.80
2023-05-14T00:50:43.378Z,11.68
2023-05-14T00:51:45.546Z,11.53
2023-05-14T00:52:47.332Z,11.46
2023-05-14T00:53:49.946Z,11.42
2023-05-14T00:54:51.859Z,11.54
2023-05-14T00:55:53.433Z,11.65
2023-05-14T00:56:55.503Z,11.73
2023-05-14T00:57:58.857Z,11.77
2023-05-14T00:59:00.591Z,11.74
2023-05-14T01:00:03.270Z,11.73
2023-05-14T01:01:05.127Z,11.74
2023-05-14T01:02:06.793Z,11.73
2023-05-14T01:03:09.064Z,11.76
2023-05-14T01:04:11.807Z,11.78
2023-05-14T01:05:13.376Z,11.76
2023-05-14T01:06:32.724Z,11.77
2023-05-14T01:08:00.559Z,11.76
2023-05-14T01:09:25.383Z,11.78
2023-05-14T01:10:37.688Z,11.72
2023-05-14T01:12:06.747Z,11.69
2023-05-14T01:13:16.659Z,11.69
2023-05-14T01:14:29.890Z,11.71
2023-05-14T01:15:34.425Z,11.68
2023-05-14T01:16:38.396Z,11.67
2023-05-14T01:17:54.121Z,11.69
2023-05-14T01:18:57.005Z,11.71
2023-05-14T01:19:59.653Z,11.70
2023-05-14T01:21:01.792Z,11.69
2023-05-14T01:22:03.491Z,11.68
2023-05-14T01:23:05.079Z,11.63
2023-05-14T01:24:07.582Z,11.57
2023-05-14T01:25:09.570Z,11.48
2023-05-14T01:26:11.108Z,11.43
2023-05-14T01:27:24.523Z,11.37
2023-05-14T01:28:32.561Z,11.27
2023-05-14T01:29:37.553Z,11.24
2023-05-14T01:30:53.190Z,11.27
2023-05-14T01:31:57.981Z,11.31
2023-05-14T01:33:02.430Z,11.31
2023-05-14T01:34:05.595Z,11.34
2023-05-14T01:35:09.500Z,11.33
2023-05-14T01:36:11.396Z,11.34
2023-05-14T01:37:13.602Z,11.33
2023-05-14T01:38:17.800Z,11.41
2023-05-14T01:39:19.738Z,11.42
2023-05-14T01:40:22.859Z,11.45
2023-05-14T01:41:25.814Z,11.25
2023-05-14T01:42:28.531Z,11.10
2023-05-14T01:43:30.649Z,10.90
2023-05-14T01:44:33.000Z,10.70
2023-05-14T01:45:35.654Z,10.56
2023-05-14T01:46:37.450Z,10.43
2023-05-14T01:47:39.378Z,10.42
2023-05-14T01:48:40.921Z,10.47
2023-05-14T01:49:42.451Z,10.51
2023-05-14T01:50:44.054Z,10.53
2023-05-14T01:51:45.760Z,10.48
2023-05-14T01:52:47.572Z,10.61
2023-05-14T01:53:49.088Z,10.75
2023-05-14T01:54:50.709Z,10.82
2023-05-14T01:55:52.270Z,10.87
2023-05-14T01:56:53.870Z,10.95
2023-05-14T01:57:55.442Z,11.01
2023-05-14T01:58:56.987Z,11.05
2023-05-14T01:59:58.925Z,11.12
2023-05-14T02:01:04.052Z,11.15
2023-05-14T02:02:05.649Z,11.16
2023-05-14T02:03:07.196Z,11.17
2023-05-14T02:04:09.012Z,11.21
2023-05-14T02:05:12.070Z,11.21
2023-05-14T02:06:13.768Z,11.23
2023-05-14T02:07:15.332Z,11.21
2023-05-14T02:08:16.844Z,11.26
2023-05-14T02:09:18.420Z,11.30
2023-05-14T02:10:20.103Z,11.33
2023-05-14T02:11:24.575Z,11.33
2023-05-14T02:12:26.112Z,11.32
2023-05-14T02:13:27.679Z,11.33
2023-05-14T02:14:29.217Z,11.38
2023-05-14T02:15:30.798Z,11.41
2023-05-14T02:16:32.420Z,11.45
2023-05-14T02:17:34.132Z,11.46
2023-05-14T02:18:35.678Z,11.46
2023-05-14T02:19:37.388Z,11.48
2023-05-14T02:20:38.935Z,11.49
2023-05-14T02:21:40.632Z,11.52
2023-05-14T02:22:42.244Z,11.59
2023-05-14T02:23:43.828Z,11.63
2023-05-14T02:24:45.395Z,11.66
2023-05-14T02:25:46.873Z,11.65
2023-05-14T02:26:48.541Z,11.56
2023-05-14T02:27:50.069Z,11.51
2023-05-14T02:28:51.623Z,11.53
2023-05-14T02:29:53.537Z,11.55
2023-05-14T02:31:01.239Z,11.59
2023-05-14T02:32:02.840Z,11.57
2023-05-14T02:33:04.460Z,11.59
2023-05-14T02:34:06.391Z,11.60
2023-05-14T02:35:09.075Z,11.66
2023-05-14T02:36:10.614Z,11.70
2023-05-14T02:37:12.617Z,11.66
2023-05-14T02:38:14.165Z,11.64
2023-05-14T02:39:15.703Z,11.64
2023-05-14T02:40:20.383Z,11.64
2023-05-14T02:41:21.968Z,11.62
2023-05-14T02:42:23.560Z,11.58
2023-05-14T02:43:25.132Z,11.55
2023-05-14T02:44:27.094Z,11.56
2023-05-14T02:45:28.612Z,11.60
2023-05-14T02:46:31.376Z,11.57
2023-05-14T02:47:33.114Z,11.56
2023-05-14T02:48:34.704Z,11.58
2023-05-14T02:49:36.397Z,11.60
2023-05-14T02:50:37.975Z,11.57
2023-05-14T02:51:39.511Z,11.63
2023-05-14T02:52:41.031Z,11.52
2023-05-14T02:53:42.655Z,11.52
2023-05-14T02:54:44.209Z,11.49
2023-05-14T02:55:45.764Z,11.54
2023-05-14T02:56:47.458Z,11.55
2023-05-14T02:57:49.002Z,11.57
2023-05-14T02:58:50.550Z,11.61
2023-05-14T02:59:52.161Z,11.58
2023-05-14T03:00:54.258Z,11.59
2023-05-14T03:01:56.452Z,11.61
2023-05-14T03:02:58.564Z,11.67
2023-05-14T03:04:00.792Z,11.48
2023-05-14T03:05:02.497Z,11.24
2023-05-14T03:06:05.132Z,11.02
2023-05-14T03:07:06.723Z,10.92
2023-05-14T03:08:08.307Z,10.79
2023-05-14T03:09:10.033Z,10.77
2023-05-14T03:10:11.607Z,10.74
2023-05-14T03:11:13.257Z,10.76
2023-05-14T03:12:14.792Z,10.71
2023-05-14T03:13:16.281Z,10.66
2023-05-14T03:14:17.874Z,10.64
2023-05-14T03:15:19.546Z,10.71
2023-05-14T03:16:21.215Z,10.81
2023-05-14T03:17:22.836Z,10.89
2023-05-14T03:18:25.024Z,10.96
2023-05-14T03:19:26.827Z,11.01
2023-05-14T03:20:28.601Z,11.09
2023-05-14T03:21:30.187Z,11.18
2023-05-14T03:22:31.852Z,11.21
2023-05-14T03:23:33.502Z,11.26
2023-05-14T03:24:35.108Z,11.33
2023-05-14T03:25:37.613Z,11.36
2023-05-14T03:26:39.164Z,11.36
2023-05-14T03:27:40.702Z,11.36
2023-05-14T03:28:42.546Z,11.41
2023-05-14T03:29:44.083Z,11.46
2023-05-14T03:30:45.716Z,11.49
2023-05-14T03:31:47.278Z,11.49
2023-05-14T03:32:48.946Z,11.52
2023-05-14T03:33:50.551Z,11.49
2023-05-14T03:34:52.181Z,11.52
2023-05-14T03:35:53.753Z,11.59
2023-05-14T03:36:57.312Z,11.58
2023-05-14T03:37:58.812Z,11.60
2023-05-14T03:39:00.294Z,11.61
2023-05-14T03:40:01.858Z,11.62
2023-05-14T03:41:03.438Z,11.64
2023-05-14T03:42:05.180Z,11.71
2023-05-14T03:43:06.760Z,11.73
2023-05-14T03:44:08.726Z,11.72
2023-05-14T03:45:10.848Z,11.72
2023-05-14T03:46:12.404Z,11.71
2023-05-14T03:47:14.015Z,11.74
2023-05-14T03:48:15.651Z,11.76
2023-05-14T03:49:17.249Z,11.76
2023-05-14T03:50:19.894Z,11.84
2023-05-14T03:51:21.427Z,11.82
2023-05-14T03:52:22.992Z,11.79
2023-05-14T03:53:24.523Z,11.67
2023-05-14T03:54:26.504Z,11.61
2023-05-14T03:55:28.258Z,11.67
2023-05-14T03:56:29.821Z,11.70
2023-05-14T03:57:31.337Z,11.78
2023-05-14T03:58:32.867Z,11.80
2023-05-14T03:59:34.954Z,11.88
2023-05-14T04:00:36.540Z,11.91
2023-05-14T04:01:38.691Z,12.00
2023-05-14T04:02:40.338Z,12.04
2023-05-14T04:03:42.108Z,12.05
2023-05-14T04:04:43.827Z,12.13
2023-05-14T04:05:45.465Z,12.20
2023-05-14T04:06:47.035Z,12.28
2023-05-14T04:07:48.540Z,12.30
2023-05-14T04:08:50.103Z,12.28
2023-05-14T04:09:51.656Z,12.23
2023-05-14T04:10:53.235Z,12.23
2023-05-14T04:11:57.740Z,12.28
2023-05-14T04:12:59.496Z,12.30
2023-05-14T04:14:05.814Z,12.38
2023-05-14T04:15:08.032Z,12.48
2023-05-14T04:16:09.626Z,12.60
2023-05-14T04:17:11.177Z,12.70
2023-05-14T04:18:12.875Z,12.77
2023-05-14T04:19:14.546Z,12.83
2023-05-14T04:20:16.850Z,12.83
2023-05-14T04:21:18.445Z,12.78
2023-05-14T04:22:19.952Z,12.87
2023-05-14T04:23:21.860Z,12.93
2023-05-14T04:24:23.380Z,12.99
2023-05-14T04:25:24.863Z,13.02
2023-05-14T04:26:26.450Z,13.00
2023-05-14T04:27:28.742Z,13.01
2023-05-14T04:28:30.246Z,13.04
2023-05-14T04:29:31.741Z,12.96
2023-05-14T04:30:33.314Z,12.93
2023-05-14T04:31:34.931Z,12.97
2023-05-14T04:32:36.541Z,13.00
2023-05-14T04:33:38.149Z,12.87
2023-05-14T04:34:39.670Z,12.85
2023-05-14T04:35:41.297Z,12.77
2023-05-14T04:36:42.817Z,12.67
2023-05-14T04:37:44.364Z,12.64
2023-05-14T04:38:45.893Z,12.64
2023-05-14T04:39:47.426Z,12.57
2023-05-14T04:40:48.984Z,12.48
2023-05-14T04:41:50.516Z,12.47
2023-05-14T04:42:52.051Z,12.43
2023-05-14T04:43:56.211Z,12.42
2023-05-14T04:44:57.729Z,12.51
2023-05-14T04:45:59.246Z,12.57
2023-05-14T04:47:00.829Z,12.52
2023-05-14T04:48:03.923Z,12.43
2023-05-14T04:49:05.450Z,12.28
2023-05-14T04:50:07.784Z,12.30
2023-05-14T04:51:09.586Z,12.32
2023-05-14T04:52:11.355Z,12.40
2023-05-14T04:53:12.880Z,12.34
2023-05-14T04:54:14.478Z,12.39
2023-05-14T04:55:16.066Z,12.43
2023-05-14T04:56:17.626Z,12.49
2023-05-14T04:57:19.222Z,12.54
2023-05-14T04:58:20.727Z,12.62
2023-05-14T04:59:22.571Z,12.59
2023-05-14T05:00:24.706Z,12.60
2023-05-14T05:01:26.585Z,12.61
2023-05-14T05:02:28.182Z,12.60
2023-05-14T05:03:29.815Z,12.54
2023-05-14T05:04:31.696Z,12.60
2023-05-14T05:05:33.171Z,12.65
2023-05-14T05:06:34.738Z,12.67
2023-05-14T05:07:36.294Z,12.66
2023-05-14T05:08:37.818Z,12.68
2023-05-14T05:09:39.379Z,12.66
2023-05-14T05:10:40.865Z,12.64
2023-05-14T05:11:42.397Z,12.65
2023-05-14T05:12:43.939Z,12.72
2023-05-14T05:13:45.456Z,12.77
2023-05-14T05:14:48.178Z,12.78
2023-05-14T05:15:49.800Z,12.88
2023-05-14T05:16:51.483Z,12.96
2023-05-14T05:17:53.064Z,13.00
2023-05-14T05:18:54.653Z,12.96
2023-05-14T05:19:56.309Z,12.93
2023-05-14T05:20:57.850Z,12.96
2023-05-14T05:21:59.462Z,12.99
2023-05-14T05:23:01.027Z,13.00
2023-05-14T05:24:02.612Z,13.03
2023-05-14T05:25:04.455Z,13.01
2023-05-14T05:26:05.996Z,12.90
2023-05-14T05:27:07.570Z,12.90
2023-05-14T05:28:09.093Z,12.91
2023-05-14T05:29:10.639Z,12.97
2023-05-14T05:30:12.439Z,12.97
2023-05-14T05:31:14.101Z,12.83
2023-05-14T05:32:15.735Z,12.85
2023-05-14T05:33:17.331Z,12.91
2023-05-14T05:34:18.873Z,13.00
2023-05-14T05:35:20.411Z,13.04
2023-05-14T05:36:21.953Z,13.07
2023-05-14T05:37:23.453Z,13.14
2023-05-14T05:38:25.018Z,13.23
2023-05-14T05:39:26.518Z,13.29
2023-05-14T05:40:28.137Z,13.42
2023-05-14T05:41:29.680Z,13.57
2023-05-14T05:42:31.248Z,13.69
2023-05-14T05:43:32.764Z,13.82
2023-05-14T05:44:34.428Z,14.00
2023-05-14T05:45:35.938Z,14.18
2023-05-14T05:46:37.548Z,14.38
2023-05-14T05:47:39.311Z,14.57
2023-05-14T05:48:40.867Z,14.72
2023-05-14T05:49:42.496Z,14.87
2023-05-14T05:50:47.000Z,15.04
2023-05-14T05:51:48.679Z,15.23
2023-05-14T05:52:50.212Z,15.42
2023-05-14T05:53:51.752Z,15.59
2023-05-14T05:54:53.333Z,15.72
2023-05-14T05:55:54.883Z,15.84
2023-05-14T05:56:56.472Z,15.94
2023-05-14T05:57:58.017Z,16.13
2023-05-14T05:58:59.540Z,16.26
2023-05-14T06:00:01.067Z,16.38
2023-05-14T06:01:02.658Z,16.51
2023-05-14T06:02:04.494Z,16.61
2023-05-14T06:03:06.052Z,16.66
2023-05-14T06:04:07.720Z,16.66
2023-05-14T06:05:10.675Z,16.76
2023-05-14T06:06:12.342Z,16.87
2023-05-14T06:07:13.890Z,16.85
2023-05-14T06:08:15.405Z,17.03
2023-05-14T06:09:16.972Z,17.16
2023-05-14T06:10:18.817Z,17.25
2023-05-14T06:11:20.326Z,17.31
2023-05-14T06:12:21.955Z,17.40
2023-05-14T06:13:23.502Z,17.49
2023-05-14T06:14:25.107Z,17.54
2023-05-14T06:15:26.666Z,17.56
2023-05-14T06:16:28.290Z,17.60
2023-05-14T06:17:29.853Z,17.65
2023-05-14T06:18:31.526Z,17.70
2023-05-14T06:19:33.108Z,17.60
2023-05-14T06:20:34.751Z,17.65
2023-05-14T06:21:36.303Z,17.60
2023-05-14T06:22:37.967Z,17.47
2023-05-14T06:23:39.770Z,17.58
2023-05-14T06:24:41.348Z,17.68
2023-05-14T06:25:42.889Z,17.75
2023-05-14T06:26:44.385Z,17.66
2023-05-14T06:27:45.988Z,17.57
2023-05-14T06:28:47.526Z,17.68
2023-05-14T06:29:49.070Z,17.77
2023-05-14T06:30:50.662Z,17.72
2023-05-14T06:31:52.549Z,17.81
2023-05-14T06:32:54.238Z,17.89
2023-05-14T06:33:55.858Z,17.96
2023-05-14T06:34:57.403Z,18.03
2023-05-14T06:36:00.621Z,18.10
2023-05-14T06:37:02.165Z,18.05
2023-05-14T06:38:03.716Z,17.95
2023-05-14T06:39:05.246Z,18.06
2023-05-14T06:40:07.416Z,18.19
2023-05-14T06:41:08.980Z,18.22
2023-05-14T06:42:10.544Z,18.29
2023-05-14T06:43:12.088Z,18.40
2023-05-14T06:44:13.641Z,18.42
2023-05-14T06:45:15.299Z,18.24
2023-05-14T06:46:16.927Z,18.23
2023-05-14T06:47:18.481Z,18.37
2023-05-14T06:48:20.500Z,18.52
2023-05-14T06:49:22.091Z,18.69
2023-05-14T06:50:23.849Z,18.82
2023-05-14T06:51:25.710Z,18.91
2023-05-14T06:52:27.367Z,19.01
2023-05-14T06:53:28.865Z,18.89
2023-05-14T06:54:30.421Z,18.75
2023-05-14T06:55:31.950Z,18.60
2023-05-14T06:56:33.555Z,18.66
2023-05-14T06:57:35.083Z,18.76
2023-05-14T06:58:36.591Z,18.90
2023-05-14T06:59:38.245Z,18.98
2023-05-14T07:00:40.062Z,19.01
2023-05-14T07:01:41.680Z,18.99
2023-05-14T07:02:43.300Z,18.88
2023-05-14T07:03:44.897Z,18.77
2023-05-14T07:04:46.619Z,18.72
2023-05-14T07:05:48.339Z,18.85
2023-05-14T07:06:49.898Z,18.89
2023-05-14T07:07:51.565Z,18.92
2023-05-14T07:08:53.089Z,18.87
2023-05-14T07:09:54.641Z,18.84
2023-05-14T07:10:56.158Z,18.98
2023-05-14T07:11:57.713Z,19.02
2023-05-14T07:12:59.231Z,18.87
2023-05-14T07:14:00.940Z,18.79
2023-05-14T07:15:02.525Z,18.74
2023-05-14T07:16:04.349Z,18.78
2023-05-14T07:17:05.938Z,18.77
2023-05-14T07:18:07.739Z,18.67
2023-05-14T07:19:09.413Z,18.80
2023-05-14T07:20:11.614Z,18.99
2023-05-14T07:21:13.202Z,19.00
2023-05-14T07:22:16.595Z,18.95
2023-05-14T07:23:19.931Z,19.04
2023-05-14T07:24:21.619Z,19.01
2023-05-14T07:25:23.267Z,18.96
2023-05-14T07:26:24.802Z,18.88
2023-05-14T07:27:26.371Z,18.84
2023-05-14T07:28:27.919Z,18.80
2023-05-14T07:29:29.509Z,18.82
2023-05-14T07:30:31.166Z,18.90
2023-05-14T07:31:32.891Z,18.90
2023-05-14T07:32:34.591Z,18.80
2023-05-14T07:33:36.538Z,18.79
2023-05-14T07:34:38.172Z,18.88
2023-05-14T07:35:39.807Z,18.96
2023-05-14T07:36:41.495Z,18.81
2023-05-14T07:37:43.268Z,18.88
2023-05-14T07:38:44.876Z,18.98
2023-05-14T07:39:46.437Z,19.15
2023-05-14T07:40:48.005Z,19.32
2023-05-14T07:41:49.525Z,19.47
2023-05-14T07:42:51.347Z,19.71
2023-05-14T07:43:52.914Z,19.89
2023-05-14T07:44:54.497Z,20.01
2023-05-14T07:45:56.042Z,20.13
2023-05-14T07:46:57.736Z,20.11
2023-05-14T07:47:59.593Z,20.20
2023-05-14T07:49:01.287Z,20.21
2023-05-14T07:50:03.230Z,20.26
2023-05-14T07:51:04.811Z,20.14
2023-05-14T07:52:08.373Z,20.17
2023-05-14T07:53:09.981Z,20.22
2023-05-14T07:54:11.527Z,20.26
2023-05-14T07:55:13.107Z,20.42
2023-05-14T07:56:14.656Z,20.50
2023-05-14T07:57:16.188Z,20.55
2023-05-14T07:58:17.729Z,20.62
2023-05-14T07:59:19.502Z,20.53
2023-05-14T08:00:21.101Z,20.47
2023-05-14T08:01:23.259Z,20.56
2023-05-14T08:02:24.917Z,20.61
2023-05-14T08:03:26.784Z,20.53
2023-05-14T08:04:28.472Z,20.50
2023-05-14T08:05:30.087Z,20.60
2023-05-14T08:06:31.603Z,20.63
2023-05-14T08:07:33.134Z,20.62
2023-05-14T08:08:35.005Z,20.71
2023-05-14T08:09:36.862Z,20.86
2023-05-14T08:10:38.571Z,20.95
2023-05-14T08:11:40.513Z,20.89
2023-05-14T08:12:42.190Z,20.86
2023-05-14T08:13:43.896Z,20.82
2023-05-14T08:14:45.419Z,20.77
2023-05-14T08:15:47.049Z,20.76
2023-05-14T08:16:48.661Z,20.75
2023-05-14T08:17:50.354Z,20.70
2023-05-14T08:18:52.163Z,20.85
2023-05-14T08:19:53.953Z,20.94
2023-05-14T08:20:55.480Z,21.08
2023-05-14T08:21:58.427Z,21.22
2023-05-14T08:22:59.948Z,21.31
2023-05-14T08:24:01.498Z,21.40
2023-05-14T08:25:03.205Z,21.46
2023-05-14T08:26:04.842Z,21.53
2023-05-14T08:27:06.381Z,21.47
2023-05-14T08:28:08.036Z,21.52
2023-05-14T08:29:11.013Z,21.58
2023-05-14T08:30:13.769Z,21.52
2023-05-14T08:31:15.409Z,21.41
2023-05-14T08:32:23.518Z,21.33
2023-05-14T08:33:25.801Z,21.34
2023-05-14T08:34:27.386Z,21.35
2023-05-14T08:35:29.047Z,21.39
2023-05-14T08:36:30.592Z,21.42
2023-05-14T08:37:32.150Z,21.46
2023-05-14T08:38:33.852Z,21.29
2023-05-14T08:39:35.375Z,21.25
2023-05-14T08:40:37.053Z,21.19
2023-05-14T08:41:39.903Z,21.29
2023-05-14T08:42:41.422Z,21.45
2023-05-14T08:43:59.182Z,21.56
2023-05-14T08:45:03.024Z,21.69
2023-05-14T08:46:05.956Z,21.64
2023-05-14T08:47:07.586Z,21.61
2023-05-14T08:48:13.408Z,21.56
2023-05-14T08:49:19.090Z,21.60
2023-05-14T08:50:23.028Z,21.76
2023-05-14T08:51:27.604Z,21.96
2023-05-14T08:52:29.950Z,21.95
2023-05-14T08:53:31.509Z,22.01
2023-05-14T08:54:33.303Z,22.11
2023-05-14T08:55:36.430Z,22.17
2023-05-14T08:56:39.023Z,22.12
2023-05-14T08:57:40.653Z,21.87
2023-05-14T08:58:42.199Z,21.61
2023-05-14T08:59:43.821Z,21.50
2023-05-14T09:00:45.488Z,21.47
2023-05-14T09:01:51.572Z,21.50
2023-05-14T09:02:53.293Z,21.57
2023-05-14T09:03:55.059Z,21.69
2023-05-14T09:05:01.749Z,21.83
2023-05-14T09:06:04.760Z,21.81
2023-05-14T09:07:07.348Z,21.74
2023-05-14T09:08:08.871Z,21.64
2023-05-14T09:09:10.749Z,21.58
2023-05-14T09:10:12.378Z,21.51
2023-05-14T09:11:13.942Z,21.65
2023-05-14T09:12:15.482Z,21.78
2023-05-14T09:13:17.046Z,21.80
2023-05-14T09:14:19.604Z,21.73
2023-05-14T09:15:21.192Z,21.73
2023-05-14T09:16:25.460Z,21.53
2023-05-14T09:17:27.222Z,21.53
2023-05-14T09:18:28.978Z,21.45
2023-05-14T09:19:30.896Z,21.36
2023-05-14T09:20:32.624Z,21.20
2023-05-14T09:21:34.890Z,21.20
2023-05-14T09:22:36.450Z,21.13
2023-05-14T09:23:42.549Z,21.01
2023-05-14T09:24:44.825Z,20.95
2023-05-14T09:25:47.904Z,20.91
2023-05-14T09:26:51.113Z,20.94
2023-05-14T09:27:52.652Z,21.01
2023-05-14T09:28:58.707Z,21.13
2023-05-14T09:30:11.298Z,21.20
2023-05-14T09:31:13.131Z,21.22
2023-05-14T09:32:14.686Z,21.27
2023-05-14T09:33:26.221Z,21.32
2023-05-14T09:34:28.602Z,21.30
2023-05-14T09:35:30.175Z,21.43
2023-05-14T09:36:34.341Z,21.50
2023-05-14T09:37:41.776Z,21.46
2023-05-14T09:38:43.558Z,21.28
2023-05-14T09:39:45.122Z,21.32
2023-05-14T09:40:46.788Z,21.31
2023-05-14T09:41:48.337Z,21.17
2023-05-14T09:42:50.213Z,21.15
2023-05-14T09:43:51.983Z,21.04
2023-05-14T09:44:53.755Z,21.03
2023-05-14T09:45:55.312Z,21.01
2023-05-14T09:46:56.944Z,20.90
2023-05-14T09:48:00.269Z,20.75
2023-05-14T09:49:01.881Z,20.69
2023-05-14T09:50:06.597Z,20.73
2023-05-14T09:51:10.393Z,20.76
2023-05-14T09:52:13.058Z,20.90
2023-05-14T09:53:14.622Z,20.96
2023-05-14T09:54:16.376Z,20.99
2023-05-14T09:55:20.048Z,20.89
2023-05-14T09:56:21.598Z,20.69
2023-05-14T09:57:23.214Z,20.74
2023-05-14T09:58:24.751Z,20.86
2023-05-14T09:59:26.308Z,21.03
2023-05-14T10:00:29.875Z,21.14
2023-05-14T10:01:32.539Z,21.30
2023-05-14T10:02:38.272Z,21.32
2023-05-14T10:03:40.783Z,21.46
2023-05-14T10:04:44.140Z,21.61
2023-05-14T10:05:48.884Z,21.76
2023-05-14T10:06:53.216Z,21.93
2023-05-14T10:07:59.085Z,22.06
2023-05-14T10:09:05.603Z,22.21
2023-05-14T10:10:10.579Z,22.19
2023-05-14T10:11:18.960Z,22.25
2023-05-14T10:12:23.076Z,22.23
2023-05-14T10:13:37.303Z,22.12
2023-05-14T10:14:42.913Z,22.10
2023-05-14T10:15:52.030Z,22.04
2023-05-14T10:16:56.067Z,21.95
2023-05-14T10:18:00.893Z,22.08
2023-05-14T10:19:10.070Z,22.12
2023-05-14T10:20:15.515Z,21.90
2023-05-14T10:21:20.854Z,21.82
2023-05-14T10:22:26.934Z,21.74
2023-05-14T10:23:28.784Z,21.62
2023-05-14T10:24:30.842Z,21.56
2023-05-14T10:25:33.076Z,21.60
2023-05-14T10:26:37.876Z,21.67
2023-05-14T10:27:40.978Z,21.84
2023-05-14T10:28:43.172Z,21.97
2023-05-14T10:29:52.005Z,21.97
2023-05-14T10:30:54.599Z,21.85
2023-05-14T10:31:56.228Z,21.86
2023-05-14T10:33:13.572Z,21.92
2023-05-14T10:34:37.649Z,21.93
2023-05-14T10:36:04.014Z,21.87
2023-05-14T10:37:08.276Z,21.63
2023-05-14T10:38:09.852Z,21.68
2023-05-14T10:39:11.420Z,21.67
2023-05-14T10:40:13.955Z,21.75
2023-05-14T10:41:15.645Z,21.75
2023-05-14T10:42:21.777Z,21.81
2023-05-14T10:43:26.586Z,21.89
2023-05-14T10:44:28.995Z,21.93
2023-05-14T10:45:30.576Z,21.82
2023-05-14T10:46:32.353Z,21.73
2023-05-14T10:47:38.990Z,21.70
2023-05-14T10:48:44.105Z,21.74
2023-05-14T10:49:47.015Z,21.72
2023-05-14T10:50:50.650Z,21.75
2023-05-14T10:51:53.959Z,21.76
2023-05-14T10:52:56.061Z,21.67
2023-05-14T10:54:00.886Z,21.76
2023-05-14T10:55:04.862Z,21.94
2023-05-14T10:56:13.626Z,22.00
2023-05-14T10:57:15.388Z,21.98
2023-05-14T10:58:18.062Z,22.01
2023-05-14T10:59:19.605Z,21.98
2023-05-14T11:00:25.774Z,21.89
2023-05-14T11:01:27.864Z,21.85
2023-05-14T11:02:31.876Z,21.83
2023-05-14T11:03:40.166Z,21.78
2023-05-14T11:04:41.708Z,21.76
2023-05-14T11:05:44.733Z,21.58
2023-05-14T11:06:47.147Z,21.50
2023-05-14T11:07:50.104Z,21.52
2023-05-14T11:08:52.412Z,21.56
2023-05-14T11:09:57.837Z,21.52
2023-05-14T11:11:00.064Z,21.46
2023-05-14T11:12:01.645Z,21.30
2023-05-14T11:13:03.263Z,21.25
2023-05-14T11:14:04.885Z,21.23
2023-05-14T11:15:11.197Z,21.14
2023-05-14T11:16:22.680Z,21.18
2023-05-14T11:17:29.803Z,21.19
2023-05-14T11:18:34.794Z,21.06
2023-05-14T11:19:36.460Z,20.98
2023-05-14T11:20:38.153Z,20.94
2023-05-14T11:21:39.713Z,20.89
2023-05-14T11:22:42.892Z,20.96
2023-05-14T11:23:46.592Z,20.94
2023-05-14T11:24:48.693Z,20.97
2023-05-14T11:25:52.029Z,21.02
2023-05-14T11:26:53.684Z,21.03
2023-05-14T11:27:55.269Z,21.02
2023-05-14T11:28:56.894Z,21.02
2023-05-14T11:29:58.511Z,21.07
2023-05-14T11:31:00.047Z,21.14
2023-05-14T11:32:02.997Z,21.18
2023-05-14T11:33:04.800Z,21.10
2023-05-14T11:34:07.664Z,21.10
2023-05-14T11:35:09.381Z,21.13
2023-05-14T11:36:11.508Z,21.12
2023-05-14T11:37:15.588Z,21.07
2023-05-14T11:38:19.216Z,21.13
2023-05-14T11:39:20.794Z,21.08
2023-05-14T11:40:22.700Z,20.95
2023-05-14T11:41:24.512Z,20.98
2023-05-14T11:42:26.075Z,21.07
2023-05-14T11:43:28.030Z,21.04
2023-05-14T11:44:29.951Z,21.09
2023-05-14T11:45:31.628Z,21.17
2023-05-14T11:46:33.375Z,21.20
2023-05-14T11:47:35.100Z,21.23
2023-05-14T11:48:36.658Z,21.18
2023-05-14T11:49:38.244Z,21.15
2023-05-14T11:50:39.804Z,21.10
2023-05-14T11:51:41.341Z,21.06
2023-05-14T11:52:42.861Z,21.08
2023-05-14T11:53:44.957Z,21.10
2023-05-14T11:54:46.748Z,21.10
2023-05-14T11:55:48.332Z,21.10
2023-05-14T11:56:51.541Z,21.16
2023-05-14T11:57:53.734Z,21.22
2023-05-14T11:58:57.118Z,21.29
2023-05-14T11:59:58.747Z,21.27
2023-05-14T12:01:00.518Z,21.24
2023-05-14T12:02:03.927Z,21.23
2023-05-14T12:03:05.871Z,21.19
2023-05-14T12:04:07.594Z,21.13
2023-05-14T12:05:12.941Z,21.10
2023-05-14T12:06:14.478Z,21.09
2023-05-14T12:07:16.770Z,21.01
2023-05-14T12:08:22.771Z,21.01
2023-05-14T12:09:24.728Z,21.03
2023-05-14T12:10:26.539Z,20.97
2023-05-14T12:11:31.568Z,20.94
2023-05-14T12:12:36.601Z,20.94
2023-05-14T12:13:39.620Z,20.94
2023-05-14T12:14:42.984Z,20.91
2023-05-14T12:15:45.975Z,20.92
2023-05-14T12:16:48.616Z,20.87
2023-05-14T12:17:50.955Z,20.88
2023-05-14T12:18:52.582Z,20.88
2023-05-14T12:19:54.141Z,20.79
2023-05-14T12:20:56.236Z,20.74
2023-05-14T12:22:00.962Z,20.70
2023-05-14T12:23:02.517Z,20.66
2023-05-14T12:24:04.342Z,20.65
2023-05-14T12:25:11.500Z,20.65
2023-05-14T12:26:13.369Z,20.63
2023-05-14T12:27:15.012Z,20.56
2023-05-14T12:28:17.997Z,20.54
2023-05-14T12:29:19.576Z,20.60
2023-05-14T12:30:22.046Z,20.58
2023-05-14T12:31:35.195Z,20.54
2023-05-14T12:32:38.865Z,20.52
2023-05-14T12:33:40.497Z,20.48
2023-05-14T12:34:42.041Z,20.44
2023-05-14T12:35:43.576Z,20.34
2023-05-14T12:36:45.171Z,20.35
2023-05-14T12:37:46.690Z,20.38
2023-05-14T12:38:49.072Z,20.36
2023-05-14T12:39:50.668Z,20.46
2023-05-14T12:40:52.168Z,20.48
2023-05-14T12:41:53.694Z,20.53
2023-05-14T12:42:56.720Z,20.53
2023-05-14T12:43:59.613Z,20.36
2023-05-14T12:45:01.127Z,20.34
2023-05-14T12:46:02.871Z,20.37
2023-05-14T12:47:04.586Z,20.42
2023-05-14T12:48:06.737Z,20.42
2023-05-14T12:49:08.400Z,20.49
2023-05-14T12:50:10.393Z,20.58
2023-05-14T12:51:12.163Z,20.61
2023-05-14T12:53:18.232Z,20.60
2023-05-14T12:54:19.802Z,20.58
2023-05-14T12:55:21.607Z,20.59
2023-05-14T12:56:23.223Z,20.48
2023-05-14T12:57:24.855Z,20.42
2023-05-14T12:58:26.429Z,20.42
2023-05-14T12:59:27.948Z,20.45
2023-05-14T13:00:29.593Z,20.50
2023-05-14T13:01:31.438Z,20.46
2023-05-14T13:02:33.047Z,20.38
2023-05-14T13:03:43.963Z,20.36
2023-05-14T13:04:45.537Z,20.31
2023-05-14T13:05:47.166Z,20.22
2023-05-14T13:06:48.733Z,20.27
2023-05-14T13:07:52.757Z,20.36
2023-05-14T13:08:54.329Z,20.34
2023-05-14T13:09:56.293Z,20.34
2023-05-14T13:10:57.826Z,20.39
2023-05-14T13:11:59.378Z,20.40
2023-05-14T13:13:01.031Z,20.47
2023-05-14T13:14:02.780Z,20.46
2023-05-14T13:15:04.930Z,20.38
2023-05-14T13:16:06.742Z,20.35
2023-05-14T13:17:08.389Z,20.37
2023-05-14T13:18:10.083Z,20.50
2023-05-14T13:19:11.817Z,20.60
2023-05-14T13:20:13.417Z,20.59
2023-05-14T13:21:15.004Z,20.61
2023-05-14T13:22:16.519Z,20.66
2023-05-14T13:23:18.121Z,20.64
2023-05-14T13:24:19.638Z,20.68
2023-05-14T13:25:21.146Z,20.73
2023-05-14T13:26:22.706Z,20.72